Time;durP1;ratioP1;P1;durP2;ratioP2;P2;SDS_P1;SDS_P2;PMS_P1;PMS_P2;Temp;Humidity;BMP_temperature;BMP_pressure;BME280_temperature;BME280_humidity;BME280_pressure;Samples;Min_cycle;Max_cycle;Signal;HPM_P1;HPM_P2
2021/01/08 05:01:52;;;;;;;1999.90;999.90;;;3.40;99.90;;;;;;5218089;23;20239;-76
2021/01/08 05:04:20;;;;;;;1999.90;999.90;;;3.40;99.90;;;;;;4877398;29;20724;-76
2021/01/08 05:06:47;;;;;;;1999.90;999.90;;;3.40;99.90;;;;;;4878179;29;20688;-76
2021/01/08 05:09:14;;;;;;;1999.90;999.90;;;3.40;99.90;;;;;;4877895;29;20283;-78
2021/01/08 05:11:45;;;;;;;1999.90;999.90;;;3.40;99.90;;;;;;4878029;29;20303;-76
2021/01/08 05:14:16;;;;;;;1999.90;999.90;;;3.40;99.90;;;;;;4878754;29;20207;-76
2021/01/08 05:16:43;;;;;;;1999.90;999.90;;;3.40;99.90;;;;;;4878598;29;20565;-77
2021/01/08 05:19:14;;;;;;;1999.90;999.90;;;3.50;99.90;;;;;;4876207;29;20219;-78
2021/01/08 05:21:44;;;;;;;1999.90;999.90;;;3.40;99.90;;;;;;4883355;29;20228;-76
2021/01/08 05:24:11;;;;;;;1999.90;999.90;;;3.30;99.90;;;;;;4877976;29;20224;-76
2021/01/08 05:26:38;;;;;;;1999.90;999.90;;;3.20;99.90;;;;;;4877779;29;20208;-76
2021/01/08 05:29:05;;;;;;;1999.90;999.90;;;3.20;99.90;;;;;;4877595;29;20212;-76
2021/01/08 05:31:33;;;;;;;1999.90;999.90;;;3.20;99.90;;;;;;4877776;29;20227;-76
2021/01/08 05:34:01;;;;;;;1999.90;999.90;;;3.10;99.90;;;;;;4878012;29;20238;-76
2021/01/08 05:36:28;;;;;;;1999.90;999.90;;;3.10;99.90;;;;;;4878036;29;20208;-76
2021/01/08 05:38:57;;;;;;;1999.90;999.90;;;3.10;99.90;;;;;;4877961;29;20670;-76
2021/01/08 05:41:26;;;;;;;1999.90;999.90;;;3.00;99.90;;;;;;4878935;29;20653;-76
2021/01/08 05:43:54;;;;;;;1999.90;999.90;;;3.00;99.90;;;;;;4877980;29;20216;-75
2021/01/08 05:46:25;;;;;;;1999.90;999.90;;;2.90;99.90;;;;;;4877724;29;20212;-77
2021/01/08 05:48:54;;;;;;;1999.90;999.90;;;2.90;99.90;;;;;;4877615;29;20212;-77
2021/01/08 05:51:24;;;;;;;1999.90;999.90;;;2.90;99.90;;;;;;4878137;29;20315;-76
2021/01/08 05:53:52;;;;;;;1999.90;999.90;;;2.90;99.90;;;;;;4877875;29;20638;-78
2021/01/08 05:56:20;;;;;;;1999.90;999.90;;;2.90;99.90;;;;;;4881149;29;20212;-77
2021/01/08 05:58:48;;;;;;;1999.90;999.90;;;2.90;99.90;;;;;;4880937;29;20216;-76
2021/01/08 06:01:16;;;;;;;1999.90;999.90;;;2.90;99.90;;;;;;4881115;29;20660;-76
2021/01/08 06:03:44;;;;;;;1999.90;999.90;;;3.00;99.90;;;;;;4880467;29;20311;-77
2021/01/08 06:06:12;;;;;;;1999.90;999.90;;;3.00;99.90;;;;;;4879788;29;20709;-77
2021/01/08 06:08:43;;;;;;;1999.90;999.90;;;3.00;99.90;;;;;;4880656;29;20208;-77
2021/01/08 06:11:17;;;;;;;1999.90;999.90;;;3.10;99.90;;;;;;4880960;29;20256;-77
2021/01/08 06:13:47;;;;;;;1999.90;999.90;;;3.00;99.90;;;;;;4880725;29;20212;-76
2021/01/08 06:16:19;;;;;;;1999.90;999.90;;;2.90;99.90;;;;;;4880809;29;20244;-77
2021/01/08 06:18:48;;;;;;;1999.90;999.90;;;2.90;99.90;;;;;;4880284;29;20670;-76
2021/01/08 06:21:16;;;;;;;1999.90;999.90;;;2.90;99.90;;;;;;4880964;29;20228;-77
2021/01/08 06:23:45;;;;;;;1999.90;999.90;;;2.90;99.90;;;;;;4880521;29;20256;-76
2021/01/08 06:26:13;;;;;;;1999.90;999.90;;;3.10;99.90;;;;;;4880385;29;20585;-77
2021/01/08 06:28:42;;;;;;;1999.90;999.90;;;3.10;99.90;;;;;;4882358;29;20199;-76
2021/01/08 06:31:24;;;;;;;1999.90;999.90;;;3.20;99.90;;;;;;4890018;29;20227;-76
2021/01/08 06:33:54;;;;;;;1999.90;999.90;;;3.30;99.90;;;;;;4888825;29;20211;-77
2021/01/08 06:36:22;;;;;;;1999.90;999.90;;;3.40;99.90;;;;;;4888770;29;20295;-77
2021/01/08 06:38:52;;;;;;;1999.90;999.90;;;3.20;99.90;;;;;;4889465;29;20255;-77
2021/01/08 06:41:20;;;;;;;1999.90;999.90;;;3.30;99.90;;;;;;4888229;29;20807;-76
2021/01/08 06:43:52;;;;;;;1999.90;999.90;;;3.30;99.90;;;;;;4880800;29;20470;-77
2021/01/08 06:46:30;;;;;;;1999.90;999.90;;;3.30;99.90;;;;;;4881588;29;20224;-78
2021/01/08 06:48:59;;;;;;;1999.90;999.90;;;3.20;99.90;;;;;;4881003;29;20211;-78
2021/01/08 06:51:28;;;;;;;1999.90;999.90;;;3.30;99.90;;;;;;4886615;29;20221;-78
2021/01/08 06:53:57;;;;;;;1999.90;999.90;;;3.30;99.90;;;;;;4895505;29;20259;-77
2021/01/08 06:56:30;;;;;;;1999.90;999.90;;;3.40;99.90;;;;;;4898140;29;20211;-76
2021/01/08 06:58:58;;;;;;;1999.90;999.90;;;3.40;99.90;;;;;;4894095;29;20593;-77
2021/01/08 07:01:31;;;;;;;1999.90;999.90;;;3.40;99.90;;;;;;4898716;29;20283;-77
2021/01/08 07:03:59;;;;;;;1999.90;999.90;;;3.30;99.90;;;;;;4898611;29;20203;-77
2021/01/08 07:06:27;;;;;;;1999.90;999.90;;;3.30;99.90;;;;;;4897732;29;20200;-77
2021/01/08 07:08:54;;;;;;;1999.90;999.90;;;3.30;99.90;;;;;;4897549;29;20210;-77
2021/01/08 07:11:26;;;;;;;1999.90;999.90;;;3.30;99.90;;;;;;4898829;29;20459;-77
2021/01/08 07:14:05;;;;;;;1999.90;999.90;;;3.20;99.90;;;;;;4896524;29;20279;-77
2021/01/08 07:16:32;;;;;;;1999.90;999.90;;;3.30;99.90;;;;;;4898324;29;20211;-77
2021/01/08 07:19:08;;;;;;;1999.90;999.90;;;3.40;99.90;;;;;;4897140;29;20207;-77
2021/01/08 07:21:35;;;;;;;1999.90;999.90;;;3.40;99.90;;;;;;4898363;29;20780;-77
2021/01/08 07:24:03;;;;;;;1999.90;999.90;;;3.40;99.90;;;;;;4898466;29;20290;-77
2021/01/08 07:26:30;;;;;;;1999.90;999.90;;;3.40;99.90;;;;;;4898278;29;20555;-77
2021/01/08 07:28:58;;;;;;;1999.90;999.90;;;3.40;99.90;;;;;;4897850;29;20254;-77
2021/01/08 07:31:32;;;;;;;1999.90;999.90;;;3.50;99.90;;;;;;4898320;29;20228;-77
2021/01/08 07:34:00;;;;;;;1999.90;999.90;;;3.60;99.90;;;;;;4898361;29;20291;-77
2021/01/08 07:36:28;;;;;;;1999.90;999.90;;;3.70;99.90;;;;;;4898142;29;20200;-77
2021/01/08 07:38:56;;;;;;;1999.90;999.90;;;3.90;99.90;;;;;;4897906;29;20732;-77
2021/01/08 07:41:31;;;;;;;1999.90;999.90;;;4.00;99.90;;;;;;4897804;29;20783;-77
2021/01/08 07:43:58;;;;;;;1999.90;999.90;;;3.80;99.90;;;;;;4898267;29;20251;-77
2021/01/08 07:46:30;;;;;;;1999.90;999.90;;;3.90;99.90;;;;;;4897881;29;20775;-77
2021/01/08 07:48:58;;;;;;;1999.90;999.90;;;4.10;99.90;;;;;;4897785;29;20627;-77
2021/01/08 07:51:44;;;;;;;1999.90;999.90;;;4.00;99.90;;;;;;4897659;29;20709;-77
2021/01/08 07:54:12;;;;;;;1999.90;999.90;;;4.00;99.90;;;;;;4898038;29;20254;-77
2021/01/08 07:57:03;;;;;;;1999.90;999.90;;;4.00;99.90;;;;;;4897644;29;20207;-77
2021/01/08 07:59:31;;;;;;;1999.90;999.90;;;4.10;99.90;;;;;;4897536;29;20720;-77
2021/01/08 08:01:59;;;;;;;1999.90;999.90;;;3.90;99.90;;;;;;4897539;29;20303;-77
2021/01/08 08:04:29;;;;;;;1999.90;999.90;;;3.80;99.90;;;;;;4897440;29;20203;-76
2021/01/08 08:06:57;;;;;;;1999.90;999.90;;;3.80;99.90;;;;;;4897703;29;20211;-77
2021/01/08 08:09:24;;;;;;;1999.90;999.90;;;3.90;99.90;;;;;;4897462;29;20203;-77
2021/01/08 08:11:51;;;;;;;1999.90;999.90;;;4.00;99.90;;;;;;4897399;29;20728;-77
2021/01/08 08:14:19;;;;;;;1999.90;999.90;;;3.90;99.90;;;;;;4897437;29;20263;-77
2021/01/08 08:16:47;;;;;;;1999.90;999.90;;;3.90;99.90;;;;;;4897187;29;20581;-77
2021/01/08 08:19:15;;;;;;;1999.90;999.90;;;4.00;99.90;;;;;;4897324;29;20557;-77
2021/01/08 08:21:46;;;;;;;1999.90;999.90;;;4.20;99.90;;;;;;4897197;29;20228;-77
2021/01/08 08:24:16;;;;;;;1999.90;999.90;;;4.10;99.90;;;;;;4897512;29;20203;-77
2021/01/08 08:26:46;;;;;;;1999.90;999.90;;;4.00;99.90;;;;;;4897329;29;20207;-77
2021/01/08 08:29:14;;;;;;;1999.90;999.90;;;4.10;99.90;;;;;;4897126;29;20599;-77
2021/01/08 08:31:44;;;;;;;1999.90;999.90;;;4.30;99.90;;;;;;4897249;29;20663;-77
2021/01/08 08:34:13;;;;;;;1999.90;999.90;;;4.40;99.90;;;;;;4897136;29;20293;-77
2021/01/08 08:36:41;;;;;;;1999.90;999.90;;;4.30;99.90;;;;;;4897197;29;20199;-77
2021/01/08 08:39:10;;;;;;;1999.90;999.90;;;4.40;99.90;;;;;;4897050;29;20636;-77
2021/01/08 08:41:38;;;;;;;1999.90;999.90;;;4.70;99.90;;;;;;4896873;29;20231;-77
2021/01/08 08:44:08;;;;;;;1999.90;999.90;;;4.50;99.90;;;;;;4897014;29;20211;-77
2021/01/08 08:46:43;;;;;;;1999.90;999.90;;;3.70;99.90;;;;;;4897220;29;20275;-77
2021/01/08 08:49:12;;;;;;;1999.90;999.90;;;4.50;99.90;;;;;;4897048;29;20262;-77
2021/01/08 08:51:44;;;;;;;1999.90;999.90;;;4.50;99.90;;;;;;4897338;29;20231;-76
2021/01/08 08:54:11;;;;;;;1999.90;999.90;;;4.60;99.90;;;;;;4896985;29;20203;-77
2021/01/08 08:56:47;;;;;;;1999.90;999.90;;;4.50;99.90;;;;;;4896769;29;20199;-76
2021/01/08 08:59:15;;;;;;;1999.90;999.90;;;4.40;99.90;;;;;;4896822;29;20573;-79
2021/01/08 09:01:43;;;;;;;1999.90;999.90;;;4.40;99.90;;;;;;4896821;29;20231;-77
2021/01/08 09:04:12;;;;;;;1999.90;999.90;;;4.30;99.90;;;;;;4896991;29;20274;-76
2021/01/08 09:06:44;;;;;;;1999.90;999.90;;;4.20;99.90;;;;;;4897272;29;20227;-76
2021/01/08 09:09:23;;;;;;;1999.90;999.90;;;4.20;99.90;;;;;;4898286;29;20251;-77
2021/01/08 09:12:07;;;;;;;1999.90;999.90;;;4.10;99.90;;;;;;4898705;29;20223;-77
2021/01/08 09:14:36;;;;;;;1999.90;999.90;;;4.10;99.90;;;;;;4897601;29;20240;-77
2021/01/08 09:17:07;;;;;;;1999.90;999.90;;;4.00;99.90;;;;;;4897895;29;20235;-77
2021/01/08 09:19:44;;;;;;;1999.90;999.90;;;4.20;99.90;;;;;;4899142;29;20453;-77
2021/01/08 09:22:12;;;;;;;1999.90;999.90;;;4.20;99.90;;;;;;4899060;29;20227;-77
2021/01/08 09:24:42;;;;;;;1999.90;999.90;;;4.30;99.90;;;;;;4899873;29;20650;-77
2021/01/08 09:27:11;;;;;;;1999.90;999.90;;;4.40;99.90;;;;;;4898362;29;20259;-77
2021/01/08 09:29:38;;;;;;;1999.90;999.90;;;4.30;99.90;;;;;;4898234;29;20263;-76
2021/01/08 09:32:10;;;;;;;1999.90;999.90;;;4.30;99.90;;;;;;4900509;29;20659;-77
2021/01/08 09:34:38;;;;;;;1999.90;999.90;;;4.20;99.90;;;;;;4900562;29;20263;-76
2021/01/08 09:37:13;;;;;;;1999.90;999.90;;;4.20;99.90;;;;;;4900206;29;20204;-77
2021/01/08 09:39:43;;;;;;;1999.90;999.90;;;4.20;99.90;;;;;;4900480;29;20207;-77
2021/01/08 09:42:11;;;;;;;1999.90;999.90;;;4.20;99.90;;;;;;4899960;29;20279;-76
2021/01/08 09:44:39;;;;;;;1999.90;999.90;;;4.20;99.90;;;;;;4900020;29;20211;-77
2021/01/08 09:47:08;;;;;;;1999.90;999.90;;;4.30;99.90;;;;;;4900344;29;20203;-76
2021/01/08 09:49:41;;;;;;;1999.90;999.90;;;4.30;99.90;;;;;;4899828;29;20760;-77
2021/01/08 09:52:09;;;;;;;1999.90;999.90;;;4.50;99.90;;;;;;4899792;29;20747;-77
2021/01/08 09:54:43;;;;;;;1999.90;999.90;;;4.60;99.90;;;;;;4899962;29;20274;-77
2021/01/08 09:57:10;;;;;;;1999.90;999.90;;;4.50;99.90;;;;;;4899922;29;20207;-76
2021/01/08 09:59:37;;;;;;;1999.90;999.90;;;4.60;99.90;;;;;;4900024;29;20256;-77
2021/01/08 10:02:09;;;;;;;1999.90;999.90;;;4.70;99.90;;;;;;4899892;29;20720;-77
2021/01/08 10:04:36;;;;;;;1999.90;999.90;;;4.60;99.90;;;;;;4899881;29;20279;-77
2021/01/08 10:07:06;;;;;;;1999.90;999.90;;;4.40;99.90;;;;;;4899965;29;20218;-76
2021/01/08 10:09:46;;;;;;;1999.90;999.90;;;4.20;99.90;;;;;;4899568;29;20208;-77
2021/01/08 10:12:14;;;;;;;1999.90;999.90;;;4.40;99.90;;;;;;4899856;29;20227;-77
2021/01/08 10:14:41;;;;;;;1999.90;999.90;;;4.40;99.90;;;;;;4899918;29;20203;-77
2021/01/08 10:17:09;;;;;;;1999.90;999.90;;;4.20;99.90;;;;;;4899754;29;20207;-76
2021/01/08 10:19:36;;;;;;;1999.90;999.90;;;4.20;99.90;;;;;;4899464;29;20302;-77
2021/01/08 10:22:05;;;;;;;1999.90;999.90;;;4.10;99.90;;;;;;4899396;29;20282;-76
2021/01/08 10:24:32;;;;;;;1999.90;999.90;;;4.00;99.90;;;;;;4899736;29;20211;-77
2021/01/08 10:26:58;;;;;;;1999.90;999.90;;;3.90;99.90;;;;;;4899321;29;20227;-77
2021/01/08 10:29:36;;;;;;;1999.90;999.90;;;3.90;99.90;;;;;;4899595;29;20207;-77
2021/01/08 10:32:07;;;;;;;1999.90;999.90;;;4.10;99.90;;;;;;4899713;29;20239;-77
2021/01/08 10:34:36;;;;;;;1999.90;999.90;;;4.10;99.90;;;;;;4899986;29;20203;-77
2021/01/08 10:37:05;;;;;;;1999.90;999.90;;;4.10;99.90;;;;;;4899683;29;20664;-78
2021/01/08 10:39:31;;;;;;;1999.90;999.90;;;4.00;99.90;;;;;;4899324;29;20672;-77
2021/01/08 10:41:58;;;;;;;1999.90;999.90;;;4.10;99.90;;;;;;4898891;29;20282;-77
2021/01/08 10:44:41;;;;;;;1999.90;999.90;;;4.10;99.90;;;;;;4899107;29;20311;-77
2021/01/08 10:47:08;;;;;;;1999.90;999.90;;;4.10;99.90;;;;;;4899047;29;20208;-77
2021/01/08 10:49:48;;;;;;;1999.90;999.90;;;4.20;99.90;;;;;;4899285;29;20286;-77
2021/01/08 10:52:16;;;;;;;1999.90;999.90;;;4.30;99.90;;;;;;4900439;29;20234;-78
2021/01/08 10:54:43;;;;;;;1999.90;999.90;;;4.10;99.90;;;;;;4900448;29;20215;-77
2021/01/08 10:57:10;;;;;;;1999.90;999.90;;;4.10;99.90;;;;;;4899608;29;20208;-76
2021/01/08 10:59:37;;;;;;;1999.90;999.90;;;4.20;99.90;;;;;;4900085;29;20668;-77
2021/01/08 11:02:04;;;;;;;1999.90;999.90;;;4.20;99.90;;;;;;4899853;29;20254;-76
2021/01/08 11:04:39;;;;;;;1999.90;999.90;;;4.10;99.90;;;;;;4899507;29;20210;-77
2021/01/08 11:07:06;;;;;;;1999.90;999.90;;;4.20;99.90;;;;;;4899419;29;20227;-77
2021/01/08 11:09:34;;;;;;;1999.90;999.90;;;4.30;99.90;;;;;;4898963;29;20278;-76
2021/01/08 11:12:01;;;;;;;1999.90;999.90;;;4.20;99.90;;;;;;4898927;29;20645;-77
2021/01/08 11:14:28;;;;;;;1999.90;999.90;;;4.40;99.90;;;;;;4900360;29;20264;-79
2021/01/08 11:16:55;;;;;;;1999.90;999.90;;;4.40;99.90;;;;;;4901060;29;20691;-80
2021/01/08 11:19:22;;;;;;;1999.90;999.90;;;4.50;99.90;;;;;;4899685;29;20209;-77
2021/01/08 11:21:52;;;;;;;1999.90;999.90;;;4.40;99.90;;;;;;4899887;29;20223;-77
2021/01/08 11:24:19;;;;;;;1999.90;999.90;;;4.40;99.90;;;;;;4899722;29;20255;-77
2021/01/08 11:26:47;;;;;;;1999.90;999.90;;;4.20;99.90;;;;;;4900444;29;20234;-77
2021/01/08 11:29:14;;;;;;;1999.90;999.90;;;4.30;99.90;;;;;;4900802;29;20267;-77
2021/01/08 11:31:41;;;;;;;1999.90;999.90;;;4.40;99.90;;;;;;4900861;29;20643;-77
2021/01/08 11:34:09;;;;;;;1999.90;999.90;;;4.60;99.90;;;;;;4901443;29;20207;-78
2021/01/08 11:36:38;;;;;;;1999.90;999.90;;;4.50;99.90;;;;;;4901270;29;20207;-78
2021/01/08 11:39:06;;;;;;;1999.90;999.90;;;4.40;99.90;;;;;;4901031;29;20211;-79
2021/01/08 11:41:33;;;;;;;1999.90;999.90;;;4.30;99.90;;;;;;4901225;29;20259;-79
2021/01/08 11:44:01;;;;;;;1999.90;999.90;;;4.20;99.90;;;;;;4901429;29;20569;-78
2021/01/08 11:46:28;;;;;;;1999.90;999.90;;;4.30;99.90;;;;;;4901691;29;20287;-78
2021/01/08 11:48:55;;;;;;;1999.90;999.90;;;4.30;99.90;;;;;;4900924;29;20771;-78
2021/01/08 11:51:23;;;;;;;1999.90;999.90;;;4.30;99.90;;;;;;4900743;29;20282;-78
2021/01/08 11:53:52;;;;;;;1999.90;999.90;;;4.30;99.90;;;;;;4900298;29;20742;-78
2021/01/08 11:56:26;;;;;;;1999.90;999.90;;;4.40;99.90;;;;;;4900589;29;20203;-77
2021/01/08 11:58:53;;;;;;;1999.90;999.90;;;4.50;99.90;;;;;;4899998;29;20234;-77
2021/01/08 12:01:24;;;;;;;1999.90;999.90;;;4.50;99.90;;;;;;4900310;29;20242;-78
2021/01/08 12:03:51;;;;;;;1999.90;999.90;;;4.50;99.90;;;;;;4899798;29;20587;-77
2021/01/08 12:06:18;;;;;;;1999.90;999.90;;;4.50;99.90;;;;;;4899482;29;20239;-77
2021/01/08 12:08:45;;;;;;;1999.90;999.90;;;4.40;99.90;;;;;;4899774;29;20295;-78
2021/01/08 12:11:15;;;;;;;1999.90;999.90;;;4.50;99.90;;;;;;4900060;29;20223;-77
2021/01/08 12:13:43;;;;;;;1999.90;999.90;;;4.30;99.90;;;;;;4899954;29;20782;-77
2021/01/08 12:16:10;;;;;;;1999.90;999.90;;;4.50;99.90;;;;;;4900000;29;20207;-77
2021/01/08 12:18:38;;;;;;;1999.90;999.90;;;4.50;99.90;;;;;;4899176;29;20203;-78
2021/01/08 12:21:06;;;;;;;1999.90;999.90;;;4.50;99.90;;;;;;4899414;29;20227;-78
2021/01/08 12:23:34;;;;;;;1999.90;999.90;;;4.50;99.90;;;;;;4899186;29;20752;-78
2021/01/08 12:26:01;;;;;;;1999.90;999.90;;;4.50;99.90;;;;;;4899794;29;20234;-78
2021/01/08 12:28:28;;;;;;;1999.90;999.90;;;4.50;99.90;;;;;;4899599;29;20211;-78
2021/01/08 12:30:55;;;;;;;1999.90;999.90;;;4.60;99.90;;;;;;4899641;29;20231;-78
2021/01/08 12:33:22;;;;;;;1999.90;999.90;;;4.70;99.90;;;;;;4899264;29;20210;-78
2021/01/08 12:35:49;;;;;;;1999.90;999.90;;;4.70;99.90;;;;;;4899491;29;20208;-78
2021/01/08 12:38:16;;;;;;;1999.90;999.90;;;4.80;99.90;;;;;;4899100;29;20255;-78
2021/01/08 12:40:43;;;;;;;1999.90;999.90;;;4.80;99.90;;;;;;4899657;29;20630;-78
2021/01/08 12:43:22;;;;;;;1999.90;999.90;;;4.90;99.90;;;;;;4899543;29;20616;-78
2021/01/08 12:45:49;;;;;;;1999.90;999.90;;;4.60;99.90;;;;;;4899275;29;20227;-78
2021/01/08 12:48:17;;;;;;;1999.90;999.90;;;4.60;99.90;;;;;;4899353;29;20207;-78
2021/01/08 12:50:43;;;;;;;1999.90;999.90;;;4.50;99.90;;;;;;4899176;29;20243;-78
2021/01/08 12:53:12;;;;;;;1999.90;999.90;;;4.40;99.90;;;;;;4899459;29;20211;-78
2021/01/08 12:55:39;;;;;;;1999.90;999.90;;;4.50;99.90;;;;;;4899949;29;20208;-78
2021/01/08 12:58:06;;;;;;;1999.90;999.90;;;4.50;99.90;;;;;;4900344;29;20219;-78
2021/01/08 13:00:33;;;;;;;1999.90;999.90;;;4.30;99.90;;;;;;4898585;29;20298;-77
2021/01/08 13:02:59;;;;;;;1999.90;999.90;;;4.30;99.90;;;;;;4897871;29;20207;-77
2021/01/08 13:05:27;;;;;;;1999.90;999.90;;;4.30;99.90;;;;;;4905767;29;20232;-77
2021/01/08 13:07:54;;;;;;;1999.90;999.90;;;4.30;99.90;;;;;;4904674;29;20587;-77
2021/01/08 13:10:21;;;;;;;1999.90;999.90;;;4.20;99.90;;;;;;4908027;29;20675;-78
2021/01/08 13:12:48;;;;;;;1999.90;999.90;;;4.20;99.90;;;;;;4903547;29;20271;-77
2021/01/08 13:15:16;;;;;;;1999.90;999.90;;;4.30;99.90;;;;;;4904582;29;20266;-77
2021/01/08 13:17:42;;;;;;;1999.90;999.90;;;4.30;99.90;;;;;;4904563;29;20207;-77
2021/01/08 13:20:10;;;;;;;1999.90;999.90;;;4.30;99.90;;;;;;4907298;29;20215;-77
2021/01/08 13:22:37;;;;;;;1999.90;999.90;;;4.30;99.90;;;;;;4903781;29;20741;-77
2021/01/08 13:25:05;;;;;;;1999.90;999.90;;;4.40;99.90;;;;;;4902532;29;20207;-77
2021/01/08 13:27:35;;;;;;;1999.90;999.90;;;4.30;99.90;;;;;;4901731;29;20227;-76
2021/01/08 13:30:21;;;;;;;1999.90;999.90;;;4.20;99.90;;;;;;4901557;29;20214;-76
2021/01/08 13:32:48;;;;;;;1999.90;999.90;;;4.20;99.90;;;;;;4900548;29;20211;-76
2021/01/08 13:35:15;;;;;;;1999.90;999.90;;;4.20;99.90;;;;;;4900903;29;20207;-76
2021/01/08 13:37:43;;;;;;;1999.90;999.90;;;4.10;99.90;;;;;;4899369;29;20229;-77
2021/01/08 13:40:11;;;;;;;1999.90;999.90;;;4.10;99.90;;;;;;4899971;29;20208;-77
2021/01/08 13:42:38;;;;;;;1999.90;999.90;;;4.10;99.90;;;;;;4900231;29;20298;-77
2021/01/08 13:45:06;;;;;;;1999.90;999.90;;;4.20;99.90;;;;;;4900660;29;20207;-77
2021/01/08 13:47:33;;;;;;;1999.90;999.90;;;4.20;99.90;;;;;;4902226;29;20234;-80
2021/01/08 13:50:01;;;;;;;1999.90;999.90;;;4.20;99.90;;;;;;4879676;29;20722;-77
2021/01/08 13:52:28;;;;;;;1999.90;999.90;;;4.30;99.90;;;;;;4880684;29;20228;-76
2021/01/08 13:54:55;;;;;;;1999.90;999.90;;;4.30;99.90;;;;;;4880570;29;20208;-77
2021/01/08 13:57:21;;;;;;;1999.90;999.90;;;4.30;99.90;;;;;;4882216;29;20252;-78
2021/01/08 13:59:49;;;;;;;1999.90;999.90;;;4.20;99.90;;;;;;4881802;29;20211;-77
2021/01/08 14:02:16;;;;;;;1999.90;999.90;;;4.20;99.90;;;;;;4881487;29;20235;-79
2021/01/08 14:04:43;;;;;;;1999.90;999.90;;;4.20;99.90;;;;;;4882732;29;20219;-78
2021/01/08 14:07:10;;;;;;;1999.90;999.90;;;4.30;99.90;;;;;;4887651;29;20223;-77
2021/01/08 14:09:36;;;;;;;1999.90;999.90;;;4.30;99.90;;;;;;4891492;29;20242;-77
2021/01/08 14:12:04;;;;;;;1999.90;999.90;;;4.30;99.90;;;;;;4891939;29;20265;-77
2021/01/08 14:14:31;;;;;;;1999.90;999.90;;;4.30;99.90;;;;;;4894016;29;20219;-78
2021/01/08 14:16:59;;;;;;;1999.90;999.90;;;4.30;99.90;;;;;;4896174;29;20211;-78
2021/01/08 14:19:26;;;;;;;1999.90;999.90;;;4.20;99.90;;;;;;4886557;29;20633;-78
2021/01/08 14:21:53;;;;;;;1999.90;999.90;;;4.20;99.90;;;;;;4881505;29;20776;-78
2021/01/08 14:24:20;;;;;;;1999.90;999.90;;;4.10;99.90;;;;;;4881935;29;20220;-80
2021/01/08 14:26:47;;;;;;;1999.90;999.90;;;4.10;99.90;;;;;;4881247;29;20228;-79
2021/01/08 14:29:14;;;;;;;1999.90;999.90;;;4.10;99.90;;;;;;4881772;29;20227;-78
2021/01/08 14:31:44;;;;;;;1999.90;999.90;;;4.20;99.90;;;;;;4883594;29;20725;-81
2021/01/08 14:34:15;;;;;;;1999.90;999.90;;;4.30;99.90;;;;;;4883923;29;20296;-79
2021/01/08 14:36:43;;;;;;;1999.90;999.90;;;4.30;99.90;;;;;;4886160;29;20730;-82
2021/01/08 14:39:12;;;;;;;1999.90;999.90;;;4.30;99.90;;;;;;4877551;29;20204;-78
2021/01/08 14:41:40;;;;;;;1999.90;999.90;;;4.20;99.90;;;;;;4878994;29;20224;-78
2021/01/08 14:44:07;;;;;;;1999.90;999.90;;;4.30;99.90;;;;;;4883053;29;20678;-81
2021/01/08 14:46:36;;;;;;;1999.90;999.90;;;4.30;99.90;;;;;;4884367;29;20228;-78
2021/01/08 14:49:04;;;;;;;1999.90;999.90;;;4.20;99.90;;;;;;4883632;29;20316;-80
2021/01/08 14:51:36;;;;;;;1999.90;999.90;;;4.20;99.90;;;;;;4883642;29;20235;-79
2021/01/08 14:54:06;;;;;;;1999.90;999.90;;;4.10;99.90;;;;;;4883188;29;20306;-79
2021/01/08 14:56:35;;;;;;;1999.90;999.90;;;4.00;99.90;;;;;;4882915;29;20295;-80
2021/01/08 14:59:02;;;;;;;1999.90;999.90;;;4.00;99.90;;;;;;4882990;29;20212;-76
2021/01/08 15:01:29;;;;;;;1999.90;999.90;;;4.10;99.90;;;;;;4883498;29;20236;-78
2021/01/08 15:03:56;;;;;;;1999.90;999.90;;;4.20;99.90;;;;;;4887345;29;20204;-79
2021/01/08 15:06:23;;;;;;;1999.90;999.90;;;4.10;99.90;;;;;;4887759;29;20220;-78
2021/01/08 15:08:51;;;;;;;1999.90;999.90;;;4.10;99.90;;;;;;4883343;29;20212;-78
2021/01/08 15:11:18;;;;;;;1999.90;999.90;;;4.20;99.90;;;;;;4882738;29;20236;-80
2021/01/08 15:13:45;;;;;;;1999.90;999.90;;;4.20;99.90;;;;;;4883658;29;20223;-78
2021/01/08 15:16:13;;;;;;;1999.90;999.90;;;4.00;99.90;;;;;;4882448;29;20666;-80
2021/01/08 15:18:40;;;;;;;1999.90;999.90;;;3.90;99.90;;;;;;4877430;29;20228;-76
2021/01/08 15:21:08;;;;;;;1999.90;999.90;;;3.90;99.90;;;;;;4882396;29;20224;-79
2021/01/08 15:23:36;;;;;;;1999.90;999.90;;;3.90;99.90;;;;;;4883208;29;20254;-78
2021/01/08 15:26:06;;;;;;;1999.90;999.90;;;4.00;99.90;;;;;;4882286;29;20701;-78
2021/01/08 15:28:33;;;;;;;1999.90;999.90;;;4.00;99.90;;;;;;4881397;29;20236;-77
2021/01/08 15:31:01;;;;;;;1999.90;999.90;;;3.90;99.90;;;;;;4883584;29;20228;-79
2021/01/08 15:33:28;;;;;;;1999.90;999.90;;;4.00;99.90;;;;;;4885856;29;20211;-80
2021/01/08 15:36:00;;;;;;;1999.90;999.90;;;3.90;99.90;;;;;;4893643;29;20260;-79
2021/01/08 15:38:31;;;;;;;1999.90;999.90;;;4.00;99.90;;;;;;4889390;29;20208;-80
2021/01/08 15:41:00;;;;;;;1999.90;999.90;;;4.10;99.90;;;;;;4891326;29;20220;-79
2021/01/08 15:43:28;;;;;;;1999.90;999.90;;;4.10;99.90;;;;;;4893282;29;20684;-78
2021/01/08 15:45:55;;;;;;;1999.90;999.90;;;4.10;99.90;;;;;;4893151;29;20235;-78
2021/01/08 15:48:23;;;;;;;1999.90;999.90;;;4.10;99.90;;;;;;4888923;29;20208;-80
2021/01/08 15:50:50;;;;;;;1999.90;999.90;;;4.10;99.90;;;;;;4894517;29;20224;-80
2021/01/08 15:53:17;;;;;;;1999.90;999.90;;;4.10;99.90;;;;;;4892757;29;20229;-81
2021/01/08 15:55:44;;;;;;;1999.90;999.90;;;4.10;99.90;;;;;;4885298;29;20212;-77
2021/01/08 15:58:11;;;;;;;1999.90;999.90;;;4.10;99.90;;;;;;4881872;29;20208;-75
2021/01/08 16:00:40;;;;;;;1999.90;999.90;;;4.00;99.90;;;;;;4881945;29;20236;-77
2021/01/08 16:03:07;;;;;;;1999.90;999.90;;;4.10;99.90;;;;;;4883878;29;20212;-77
2021/01/08 16:05:33;;;;;;;1999.90;999.90;;;4.10;99.90;;;;;;4887489;29;20204;-77
2021/01/08 16:08:01;;;;;;;1999.90;999.90;;;4.10;99.90;;;;;;4884331;29;20268;-77
2021/01/08 16:10:29;;;;;;;1999.90;999.90;;;4.10;99.90;;;;;;4882233;29;20208;-80
2021/01/08 16:12:56;;;;;;;1999.90;999.90;;;4.00;99.90;;;;;;4880868;29;20276;-78
2021/01/08 16:15:23;;;;;;;1999.90;999.90;;;4.00;99.90;;;;;;4881051;29;20562;-79
2021/01/08 16:17:54;;;;;;;1999.90;999.90;;;4.00;99.90;;;;;;4879637;29;20200;-77
2021/01/08 16:20:21;;;;;;;1999.90;999.90;;;4.10;99.90;;;;;;4880041;29;20696;-79
2021/01/08 16:22:47;;;;;;;1999.90;999.90;;;4.10;99.90;;;;;;4879696;29;20475;-77
2021/01/08 16:25:15;;;;;;;1999.90;999.90;;;4.20;99.90;;;;;;4879375;29;20212;-77
2021/01/08 16:27:42;;;;;;;1999.90;999.90;;;4.20;99.90;;;;;;4879893;29;20272;-78
2021/01/08 16:30:11;;;;;;;1999.90;999.90;;;4.30;99.90;;;;;;4877592;29;20260;-77
2021/01/08 16:32:38;;;;;;;1999.90;999.90;;;4.30;99.90;;;;;;4880213;29;20267;-78
2021/01/08 16:35:08;;;;;;;1999.90;999.90;;;4.30;99.90;;;;;;4859723;29;20284;-77
2021/01/08 16:37:37;;;;;;;1999.90;999.90;;;4.30;99.90;;;;;;4882288;29;20641;-76
2021/01/08 16:40:05;;;;;;;1999.90;999.90;;;4.30;99.90;;;;;;4869630;29;20659;-78
2021/01/08 16:42:32;;;;;;;1999.90;999.90;;;4.20;99.90;;;;;;4862050;29;20717;-78
2021/01/08 16:44:59;;;;;;;1999.90;999.90;;;4.30;99.90;;;;;;4861629;29;20220;-76
2021/01/08 16:47:26;;;;;;;1999.90;999.90;;;4.10;99.90;;;;;;4861146;29;20281;-79
2021/01/08 16:49:53;;;;;;;1999.90;999.90;;;4.20;99.90;;;;;;4862337;29;20268;-78
2021/01/08 16:52:21;;;;;;;1999.90;999.90;;;4.30;99.90;;;;;;4862646;29;20730;-79
2021/01/08 16:54:48;;;;;;;1999.90;999.90;;;4.30;99.90;;;;;;4863074;29;20209;-79
2021/01/08 16:57:16;;;;;;;1999.90;999.90;;;4.40;99.90;;;;;;4863053;29;20209;-78
2021/01/08 16:59:44;;;;;;;1999.90;999.90;;;4.40;99.90;;;;;;4862050;29;20208;-80
2021/01/08 17:02:11;;;;;;;1999.90;999.90;;;4.50;99.90;;;;;;4863295;29;20678;-79
2021/01/08 17:04:39;;;;;;;1999.90;999.90;;;4.60;99.90;;;;;;4862851;29;20208;-79
2021/01/08 17:07:06;;;;;;;1999.90;999.90;;;4.50;99.90;;;;;;4862130;29;20292;-79
2021/01/08 17:09:34;;;;;;;1999.90;999.90;;;4.60;99.90;;;;;;4862041;29;20213;-80
2021/01/08 17:12:03;;;;;;;1999.90;999.90;;;4.50;99.90;;;;;;4860329;29;20237;-77
2021/01/08 17:14:30;;;;;;;1999.90;999.90;;;4.60;99.90;;;;;;4859851;29;20624;-79
2021/01/08 17:17:00;;;;;;;1999.90;999.90;;;4.50;99.90;;;;;;4878014;29;20599;-75